sensor_id;sensor_type;location;lat;lon;timestamp;pressure;altitude;pressure_sealevel;temperature;humidity
40117;BME280;25829;50.228;18.936;2023-04-06T00:00:20;98947.19;;;-3.02;58.43
40117;BME280;25829;50.228;18.936;2023-04-06T00:03:21;98956.66;;;-3.02;58.12
40117;BME280;25829;50.228;18.936;2023-04-06T00:06:25;98952.03;;;-3.10;58.27
40117;BME280;25829;50.228;18.936;2023-04-06T00:09:27;98961.53;;;-3.10;58.60
40117;BME280;25829;50.228;18.936;2023-04-06T00:12:28;98951.56;;;-3.15;58.54
40117;BME280;25829;50.228;18.936;2023-04-06T00:15:28;98958.47;;;-3.15;58.47
40117;BME280;25829;50.228;18.936;2023-04-06T00:18:29;98958.34;;;-3.14;58.54
40117;BME280;25829;50.228;18.936;2023-04-06T00:21:30;98949.66;;;-3.13;58.40
40117;BME280;25829;50.228;18.936;2023-04-06T00:24:32;98949.78;;;-3.14;58.63
40117;BME280;25829;50.228;18.936;2023-04-06T00:27:33;98947.53;;;-3.19;58.44
40117;BME280;25829;50.228;18.936;2023-04-06T00:30:34;98947.75;;;-3.22;58.46
40117;BME280;25829;50.228;18.936;2023-04-06T00:33:35;98956.66;;;-3.26;58.48
40117;BME280;25829;50.228;18.936;2023-04-06T00:36:35;98943.97;;;-3.29;58.41
40117;BME280;25829;50.228;18.936;2023-04-06T00:39:37;98943.09;;;-3.30;58.64
40117;BME280;25829;50.228;18.936;2023-04-06T00:42:38;98943.09;;;-3.30;58.57
40117;BME280;25829;50.228;18.936;2023-04-06T00:45:39;98948.28;;;-3.30;58.93
40117;BME280;25829;50.228;18.936;2023-04-06T00:48:41;98939.91;;;-3.33;59.00
40117;BME280;25829;50.228;18.936;2023-04-06T00:51:54;98940.25;;;-3.38;59.42
40117;BME280;25829;50.228;18.936;2023-04-06T00:54:55;98938.81;;;-3.42;59.46
40117;BME280;25829;50.228;18.936;2023-04-06T00:58:02;98941.81;;;-3.48;59.28
40117;BME280;25829;50.228;18.936;2023-04-06T01:01:10;98945.34;;;-3.49;59.74
40117;BME280;25829;50.228;18.936;2023-04-06T01:04:12;98940.06;;;-3.48;59.88
40117;BME280;25829;50.228;18.936;2023-04-06T01:07:15;98943.78;;;-3.52;59.99
40117;BME280;25829;50.228;18.936;2023-04-06T01:10:26;98930.06;;;-3.52;59.94
40117;BME280;25829;50.228;18.936;2023-04-06T01:13:45;98937.81;;;-3.52;60.19
40117;BME280;25829;50.228;18.936;2023-04-06T01:16:57;98933.59;;;-3.53;60.23
40117;BME280;25829;50.228;18.936;2023-04-06T01:20:02;98938.75;;;-3.53;60.40
40117;BME280;25829;50.228;18.936;2023-04-06T01:23:05;98938.16;;;-3.57;60.12
40117;BME280;25829;50.228;18.936;2023-04-06T01:26:07;98936.47;;;-3.58;59.96
40117;BME280;25829;50.228;18.936;2023-04-06T01:29:08;98939.38;;;-3.62;60.09
40117;BME280;25829;50.228;18.936;2023-04-06T01:32:09;98937.13;;;-3.67;60.04
40117;BME280;25829;50.228;18.936;2023-04-06T01:35:19;98931.97;;;-3.67;60.23
40117;BME280;25829;50.228;18.936;2023-04-06T01:38:32;98933.22;;;-3.73;60.45
40117;BME280;25829;50.228;18.936;2023-04-06T01:41:32;98930.41;;;-3.70;60.68
40117;BME280;25829;50.228;18.936;2023-04-06T01:44:33;98927.84;;;-3.70;60.55
40117;BME280;25829;50.228;18.936;2023-04-06T01:47:45;98934.03;;;-3.72;60.38
40117;BME280;25829;50.228;18.936;2023-04-06T01:50:47;98928.88;;;-3.72;60.55
40117;BME280;25829;50.228;18.936;2023-04-06T01:53:53;98922.19;;;-3.75;60.61
40117;BME280;25829;50.228;18.936;2023-04-06T01:56:57;98922.28;;;-3.76;60.78
40117;BME280;25829;50.228;18.936;2023-04-06T02:00:05;98921.47;;;-3.77;60.70
40117;BME280;25829;50.228;18.936;2023-04-06T02:03:14;98923.31;;;-3.79;60.79
40117;BME280;25829;50.228;18.936;2023-04-06T02:06:16;98924.38;;;-3.81;60.70
40117;BME280;25829;50.228;18.936;2023-04-06T02:09:17;98926.00;;;-3.80;60.88
40117;BME280;25829;50.228;18.936;2023-04-06T02:12:18;98929.53;;;-3.81;60.46
40117;BME280;25829;50.228;18.936;2023-04-06T02:15:19;98921.53;;;-3.78;60.67
40117;BME280;25829;50.228;18.936;2023-04-06T02:18:20;98926.81;;;-3.80;60.71
40117;BME280;25829;50.228;18.936;2023-04-06T02:21:21;98922.59;;;-3.81;60.80
40117;BME280;25829;50.228;18.936;2023-04-06T02:24:22;98925.19;;;-3.81;60.85
40117;BME280;25829;50.228;18.936;2023-04-06T02:27:24;98923.63;;;-3.83;60.84
40117;BME280;25829;50.228;18.936;2023-04-06T02:30:24;98923.75;;;-3.85;61.21
40117;BME280;25829;50.228;18.936;2023-04-06T02:33:25;98921.16;;;-3.85;61.10
40117;BME280;25829;50.228;18.936;2023-04-06T02:36:26;98922.06;;;-3.86;61.47
40117;BME280;25829;50.228;18.936;2023-04-06T02:39:27;98912.72;;;-3.87;61.05
40117;BME280;25829;50.228;18.936;2023-04-06T02:42:29;98910.25;;;-3.88;61.00
40117;BME280;25829;50.228;18.936;2023-04-06T02:45:30;98915.50;;;-3.90;61.47
40117;BME280;25829;50.228;18.936;2023-04-06T02:48:32;98915.50;;;-3.90;61.38
40117;BME280;25829;50.228;18.936;2023-04-06T02:51:36;98918.28;;;-3.93;61.20
40117;BME280;25829;50.228;18.936;2023-04-06T02:54:57;98925.59;;;-4.00;61.43
40117;BME280;25829;50.228;18.936;2023-04-06T02:58:02;98926.66;;;-4.02;61.69
40117;BME280;25829;50.228;18.936;2023-04-06T03:01:11;98924.06;;;-4.02;61.98
40117;BME280;25829;50.228;18.936;2023-04-06T03:04:14;98924.97;;;-4.03;61.59
40117;BME280;25829;50.228;18.936;2023-04-06T03:07:15;98925.78;;;-4.03;61.64
40117;BME280;25829;50.228;18.936;2023-04-06T03:10:17;98926.13;;;-4.07;61.56
40117;BME280;25829;50.228;18.936;2023-04-06T03:13:23;98925.63;;;-4.12;61.33
40117;BME280;25829;50.228;18.936;2023-04-06T03:16:33;98925.00;;;-4.16;61.49
40117;BME280;25829;50.228;18.936;2023-04-06T03:19:35;98926.97;;;-4.20;61.62
40117;BME280;25829;50.228;18.936;2023-04-06T03:22:37;98923.84;;;-4.25;61.68
40117;BME280;25829;50.228;18.936;2023-04-06T03:25:41;98929.13;;;-4.26;61.87
40117;BME280;25829;50.228;18.936;2023-04-06T03:28:44;98925.81;;;-4.28;62.21
40117;BME280;25829;50.228;18.936;2023-04-06T03:31:45;98930.00;;;-4.27;62.17
40117;BME280;25829;50.228;18.936;2023-04-06T03:35:18;98931.88;;;-4.29;62.24
40117;BME280;25829;50.228;18.936;2023-04-06T03:38:19;98939.69;;;-4.31;62.42
40117;BME280;25829;50.228;18.936;2023-04-06T03:41:20;98935.47;;;-4.32;62.59
40117;BME280;25829;50.228;18.936;2023-04-06T03:44:47;98942.59;;;-4.35;62.64
40117;BME280;25829;50.228;18.936;2023-04-06T03:47:48;98943.41;;;-4.35;62.40
40117;BME280;25829;50.228;18.936;2023-04-06T03:50:49;98941.78;;;-4.36;62.68
40117;BME280;25829;50.228;18.936;2023-04-06T03:53:50;98938.56;;;-4.39;62.28
40117;BME280;25829;50.228;18.936;2023-04-06T03:56:51;98942.06;;;-4.41;62.36
40117;BME280;25829;50.228;18.936;2023-04-06T03:59:52;98944.13;;;-4.46;62.56
40117;BME280;25829;50.228;18.936;2023-04-06T04:02:52;98944.13;;;-4.46;62.85
40117;BME280;25829;50.228;18.936;2023-04-06T04:05:55;98947.63;;;-4.47;62.65
40117;BME280;25829;50.228;18.936;2023-04-06T04:08:57;98946.88;;;-4.49;62.81
40117;BME280;25829;50.228;18.936;2023-04-06T04:11:57;98946.88;;;-4.49;62.89
40117;BME280;25829;50.228;18.936;2023-04-06T04:14:59;98948.97;;;-4.54;62.83
40117;BME280;25829;50.228;18.936;2023-04-06T04:18:00;98954.81;;;-4.52;62.60
40117;BME280;25829;50.228;18.936;2023-04-06T04:21:01;98953.16;;;-4.53;62.63
40117;BME280;25829;50.228;18.936;2023-04-06T04:24:02;98948.22;;;-4.56;62.64
40117;BME280;25829;50.228;18.936;2023-04-06T04:27:03;98951.72;;;-4.57;62.94
40117;BME280;25829;50.228;18.936;2023-04-06T04:30:07;98951.53;;;-4.54;62.78
40117;BME280;25829;50.228;18.936;2023-04-06T04:33:07;98956.69;;;-4.54;62.97
40117;BME280;25829;50.228;18.936;2023-04-06T04:36:08;98954.09;;;-4.54;62.78
40117;BME280;25829;50.228;18.936;2023-04-06T04:39:15;98947.09;;;-4.52;63.01
40117;BME280;25829;50.228;18.936;2023-04-06T04:42:19;98958.00;;;-4.48;63.06
40117;BME280;25829;50.228;18.936;2023-04-06T04:45:25;98956.88;;;-4.44;62.76
40117;BME280;25829;50.228;18.936;2023-04-06T04:48:26;98948.97;;;-4.41;62.94
40117;BME280;25829;50.228;18.936;2023-04-06T04:51:33;98951.34;;;-4.38;62.75
40117;BME280;25829;50.228;18.936;2023-04-06T04:54:51;98945.97;;;-4.35;62.75
40117;BME280;25829;50.228;18.936;2023-04-06T04:57:58;98950.75;;;-4.29;63.02
40117;BME280;25829;50.228;18.936;2023-04-06T05:01:13;98952.09;;;-4.23;63.02
40117;BME280;25829;50.228;18.936;2023-04-06T05:04:15;98943.13;;;-4.18;63.04
40117;BME280;25829;50.228;18.936;2023-04-06T05:07:17;98945.19;;;-4.10;63.00
40117;BME280;25829;50.228;18.936;2023-04-06T05:10:19;98942.94;;;-4.02;63.30
40117;BME280;25829;50.228;18.936;2023-04-06T05:13:26;98944.97;;;-3.94;63.42
40117;BME280;25829;50.228;18.936;2023-04-06T05:16:29;98934.97;;;-3.86;63.06
40117;BME280;25829;50.228;18.936;2023-04-06T05:19:30;98941.25;;;-3.77;63.51
40117;BME280;25829;50.228;18.936;2023-04-06T05:22:31;98931.75;;;-3.64;63.45
40117;BME280;25829;50.228;18.936;2023-04-06T05:25:40;98942.97;;;-3.52;63.41
40117;BME280;25829;50.228;18.936;2023-04-06T05:28:50;98938.50;;;-3.37;63.18
40117;BME280;25829;50.228;18.936;2023-04-06T05:31:52;98942.00;;;-3.26;63.51
40117;BME280;25829;50.228;18.936;2023-04-06T05:34:53;98946.19;;;-3.12;63.34
40117;BME280;25829;50.228;18.936;2023-04-06T05:37:55;98929.19;;;-3.03;63.05
40117;BME280;25829;50.228;18.936;2023-04-06T05:41:10;98940.16;;;-2.88;62.75
40117;BME280;25829;50.228;18.936;2023-04-06T05:44:14;98941.88;;;-2.76;62.78
40117;BME280;25829;50.228;18.936;2023-04-06T05:47:18;98942.75;;;-2.64;62.75
40117;BME280;25829;50.228;18.936;2023-04-06T05:50:25;98936.56;;;-2.51;62.78
40117;BME280;25829;50.228;18.936;2023-04-06T05:53:30;98933.09;;;-2.38;62.89
40117;BME280;25829;50.228;18.936;2023-04-06T05:56:43;98933.34;;;-2.19;62.56
40117;BME280;25829;50.228;18.936;2023-04-06T05:59:46;98941.50;;;-2.01;62.69
40117;BME280;25829;50.228;18.936;2023-04-06T06:03:00;98934.72;;;-1.80;62.39
40117;BME280;25829;50.228;18.936;2023-04-06T06:06:08;98930.34;;;-1.57;62.74
40117;BME280;25829;50.228;18.936;2023-04-06T06:09:37;98921.50;;;-1.32;61.93
40117;BME280;25829;50.228;18.936;2023-04-06T06:13:03;98923.44;;;-1.13;61.58
40117;BME280;25829;50.228;18.936;2023-04-06T06:16:13;98924.56;;;-0.94;61.53
40117;BME280;25829;50.228;18.936;2023-04-06T06:19:19;98925.94;;;-0.79;61.32
40117;BME280;25829;50.228;18.936;2023-04-06T06:22:20;98926.34;;;-0.63;61.32
40117;BME280;25829;50.228;18.936;2023-04-06T06:25:21;98914.84;;;-0.49;60.93
40117;BME280;25829;50.228;18.936;2023-04-06T06:28:46;98920.28;;;-0.31;60.35
40117;BME280;25829;50.228;18.936;2023-04-06T06:32:23;98916.41;;;-0.16;59.99
40117;BME280;25829;50.228;18.936;2023-04-06T06:35:26;98911.44;;;-0.07;60.20
40117;BME280;25829;50.228;18.936;2023-04-06T06:38:36;98917.34;;;0.04;59.44
40117;BME280;25829;50.228;18.936;2023-04-06T06:41:39;98925.03;;;0.16;59.52
40117;BME280;25829;50.228;18.936;2023-04-06T06:44:41;98921.28;;;0.29;59.07
40117;BME280;25829;50.228;18.936;2023-04-06T06:47:42;98921.88;;;0.43;59.00
40117;BME280;25829;50.228;18.936;2023-04-06T06:50:47;98924.25;;;0.55;58.77
40117;BME280;25829;50.228;18.936;2023-04-06T06:53:48;98921.94;;;0.62;57.63
40117;BME280;25829;50.228;18.936;2023-04-06T06:56:50;98923.72;;;0.71;55.99
40117;BME280;25829;50.228;18.936;2023-04-06T06:59:52;98928.88;;;0.62;54.48
40117;BME280;25829;50.228;18.936;2023-04-06T07:02:54;98929.44;;;0.55;53.42
40117;BME280;25829;50.228;18.936;2023-04-06T07:05:55;98926.03;;;0.55;53.80
40117;BME280;25829;50.228;18.936;2023-04-06T07:08:58;98932.19;;;0.64;52.64
40117;BME280;25829;50.228;18.936;2023-04-06T07:11:59;98930.03;;;0.69;51.72
40117;BME280;25829;50.228;18.936;2023-04-06T07:15:02;98934.56;;;0.76;51.31
40117;BME280;25829;50.228;18.936;2023-04-06T07:18:03;98934.44;;;0.88;52.09
40117;BME280;25829;50.228;18.936;2023-04-06T07:21:04;98921.84;;;0.83;50.93
40117;BME280;25829;50.228;18.936;2023-04-06T07:24:05;98934.72;;;0.94;49.89
40117;BME280;25829;50.228;18.936;2023-04-06T07:27:06;98935.97;;;1.10;51.14
40117;BME280;25829;50.228;18.936;2023-04-06T07:30:08;98931.84;;;1.17;49.26
40117;BME280;25829;50.228;18.936;2023-04-06T07:33:14;98938.44;;;1.30;49.93
40117;BME280;25829;50.228;18.936;2023-04-06T07:36:18;98938.59;;;1.39;49.41
40117;BME280;25829;50.228;18.936;2023-04-06T07:39:19;98939.81;;;1.44;48.55
40117;BME280;25829;50.228;18.936;2023-04-06T07:42:21;98951.72;;;1.57;48.92
40117;BME280;25829;50.228;18.936;2023-04-06T07:45:22;98939.94;;;1.62;48.71
40117;BME280;25829;50.228;18.936;2023-04-06T07:48:24;98939.00;;;1.63;48.47
40117;BME280;25829;50.228;18.936;2023-04-06T07:51:28;98925.97;;;1.73;49.30
40117;BME280;25829;50.228;18.936;2023-04-06T07:54:30;98931.00;;;1.84;48.72
40117;BME280;25829;50.228;18.936;2023-04-06T07:57:31;98928.13;;;1.97;48.96
40117;BME280;25829;50.228;18.936;2023-04-06T08:00:34;98928.47;;;2.12;48.02
40117;BME280;25829;50.228;18.936;2023-04-06T08:03:39;98936.34;;;2.30;48.13
40117;BME280;25829;50.228;18.936;2023-04-06T08:06:40;98927.25;;;2.43;46.97
40117;BME280;25829;50.228;18.936;2023-04-06T08:09:56;98930.47;;;2.55;46.91
40117;BME280;25829;50.228;18.936;2023-04-06T08:12:57;98916.91;;;2.79;47.00
40117;BME280;25829;50.228;18.936;2023-04-06T08:16:01;98916.00;;;3.16;45.59
40117;BME280;25829;50.228;18.936;2023-04-06T08:19:02;98920.31;;;3.07;43.76
40117;BME280;25829;50.228;18.936;2023-04-06T08:22:03;98907.47;;;3.32;45.57
40117;BME280;25829;50.228;18.936;2023-04-06T08:25:33;98906.50;;;3.68;44.73
40117;BME280;25829;50.228;18.936;2023-04-06T08:28:35;98916.88;;;3.78;44.09
40117;BME280;25829;50.228;18.936;2023-04-06T08:31:40;98920.03;;;3.64;45.05
40117;BME280;25829;50.228;18.936;2023-04-06T08:34:41;98914.84;;;3.46;44.04
40117;BME280;25829;50.228;18.936;2023-04-06T08:37:42;98921.66;;;3.11;43.67
40117;BME280;25829;50.228;18.936;2023-04-06T08:40:43;98911.53;;;2.90;44.72
40117;BME280;25829;50.228;18.936;2023-04-06T08:43:49;98904.88;;;2.78;45.82
40117;BME280;25829;50.228;18.936;2023-04-06T08:46:54;98915.63;;;2.65;45.70
40117;BME280;25829;50.228;18.936;2023-04-06T08:49:55;98910.81;;;2.43;45.38
40117;BME280;25829;50.228;18.936;2023-04-06T08:52:57;98902.88;;;2.35;45.88
40117;BME280;25829;50.228;18.936;2023-04-06T08:55:58;98906.88;;;2.39;45.92
40117;BME280;25829;50.228;18.936;2023-04-06T08:59:03;98907.22;;;2.16;45.15
40117;BME280;25829;50.228;18.936;2023-04-06T09:02:06;98914.41;;;1.95;45.42
40117;BME280;25829;50.228;18.936;2023-04-06T09:05:14;98906.63;;;1.85;45.43
40117;BME280;25829;50.228;18.936;2023-04-06T09:08:15;98904.72;;;1.87;45.78
40117;BME280;25829;50.228;18.936;2023-04-06T09:11:19;98903.03;;;1.96;46.83
40117;BME280;25829;50.228;18.936;2023-04-06T09:14:59;98893.41;;;2.06;45.83
40117;BME280;25829;50.228;18.936;2023-04-06T09:18:01;98897.91;;;2.14;45.53
40117;BME280;25829;50.228;18.936;2023-04-06T09:21:20;98888.81;;;2.27;46.63
40117;BME280;25829;50.228;18.936;2023-04-06T09:24:20;98895.03;;;2.44;46.41
40117;BME280;25829;50.228;18.936;2023-04-06T09:27:31;98893.56;;;2.42;44.89
40117;BME280;25829;50.228;18.936;2023-04-06T09:30:31;98894.88;;;2.28;45.50
40117;BME280;25829;50.228;18.936;2023-04-06T09:33:32;98879.91;;;2.30;45.80
40117;BME280;25829;50.228;18.936;2023-04-06T09:36:36;98881.16;;;2.26;45.93
40117;BME280;25829;50.228;18.936;2023-04-06T09:39:41;98875.25;;;2.24;45.94
40117;BME280;25829;50.228;18.936;2023-04-06T09:42:42;98882.50;;;2.30;46.67
40117;BME280;25829;50.228;18.936;2023-04-06T09:45:43;98869.97;;;2.43;46.12
40117;BME280;25829;50.228;18.936;2023-04-06T09:48:44;98870.22;;;2.50;46.25
40117;BME280;25829;50.228;18.936;2023-04-06T09:51:47;98879.56;;;2.70;46.61
40117;BME280;25829;50.228;18.936;2023-04-06T09:54:51;98878.81;;;2.96;46.97
40117;BME280;25829;50.228;18.936;2023-04-06T09:58:05;98862.84;;;3.35;45.43
40117;BME280;25829;50.228;18.936;2023-04-06T10:01:10;98856.94;;;3.42;44.81
40117;BME280;25829;50.228;18.936;2023-04-06T10:07:19;98840.25;;;3.87;44.66
40117;BME280;25829;50.228;18.936;2023-04-06T10:10:21;98853.19;;;3.97;43.42
40117;BME280;25829;50.228;18.936;2023-04-06T10:13:23;98856.03;;;3.78;43.89
40117;BME280;25829;50.228;18.936;2023-04-06T10:16:28;98850.72;;;3.69;44.70
40117;BME280;25829;50.228;18.936;2023-04-06T10:19:55;98836.47;;;3.82;43.99
40117;BME280;25829;50.228;18.936;2023-04-06T10:23:11;98842.09;;;3.95;44.49
40117;BME280;25829;50.228;18.936;2023-04-06T10:26:19;98846.53;;;4.03;43.77
40117;BME280;25829;50.228;18.936;2023-04-06T10:29:21;98837.09;;;4.10;44.46
40117;BME280;25829;50.228;18.936;2023-04-06T10:32:35;98830.63;;;4.22;43.81
40117;BME280;25829;50.228;18.936;2023-04-06T10:35:39;98837.00;;;4.28;43.60
40117;BME280;25829;50.228;18.936;2023-04-06T10:38:41;98837.03;;;4.36;43.43
40117;BME280;25829;50.228;18.936;2023-04-06T10:41:45;98824.97;;;4.43;43.76
40117;BME280;25829;50.228;18.936;2023-04-06T10:44:49;98822.44;;;4.17;41.78
40117;BME280;25829;50.228;18.936;2023-04-06T10:47:55;98817.97;;;4.01;43.45
40117;BME280;25829;50.228;18.936;2023-04-06T10:50:56;98815.88;;;4.05;43.78
40117;BME280;25829;50.228;18.936;2023-04-06T10:53:58;98818.84;;;4.18;43.72
40117;BME280;25829;50.228;18.936;2023-04-06T10:56:59;98809.28;;;3.92;41.40
40117;BME280;25829;50.228;18.936;2023-04-06T11:00:01;98818.00;;;3.75;43.68
40117;BME280;25829;50.228;18.936;2023-04-06T11:03:05;98814.56;;;3.75;42.78
40117;BME280;25829;50.228;18.936;2023-04-06T11:06:07;98822.97;;;3.60;43.45
40117;BME280;25829;50.228;18.936;2023-04-06T11:09:08;98816.22;;;3.50;43.26
40117;BME280;25829;50.228;18.936;2023-04-06T11:12:26;98817.66;;;3.44;43.35
40117;BME280;25829;50.228;18.936;2023-04-06T11:15:39;98816.94;;;3.42;43.94
40117;BME280;25829;50.228;18.936;2023-04-06T11:19:00;98816.66;;;3.45;43.74
40117;BME280;25829;50.228;18.936;2023-04-06T11:22:07;98811.97;;;3.49;43.83
40117;BME280;25829;50.228;18.936;2023-04-06T11:25:15;98808.19;;;3.43;43.39
40117;BME280;25829;50.228;18.936;2023-04-06T11:28:18;98809.34;;;3.49;44.50
40117;BME280;25829;50.228;18.936;2023-04-06T11:31:18;98813.56;;;3.67;44.36
40117;BME280;25829;50.228;18.936;2023-04-06T11:34:21;98811.19;;;3.82;43.83
40117;BME280;25829;50.228;18.936;2023-04-06T11:37:26;98799.66;;;3.93;43.64
40117;BME280;25829;50.228;18.936;2023-04-06T11:40:30;98795.44;;;4.00;43.53
40117;BME280;25829;50.228;18.936;2023-04-06T11:43:33;98796.75;;;4.04;42.82
40117;BME280;25829;50.228;18.936;2023-04-06T11:46:58;98788.28;;;4.10;43.49
40117;BME280;25829;50.228;18.936;2023-04-06T11:50:10;98793.88;;;4.15;43.16
40117;BME280;25829;50.228;18.936;2023-04-06T11:53:15;98780.97;;;4.14;43.00
40117;BME280;25829;50.228;18.936;2023-04-06T11:56:30;98782.75;;;4.13;43.33
40117;BME280;25829;50.228;18.936;2023-04-06T11:59:37;98777.56;;;4.22;42.64
40117;BME280;25829;50.228;18.936;2023-04-06T12:02:38;98785.88;;;4.17;42.75
40117;BME280;25829;50.228;18.936;2023-04-06T12:05:39;98780.16;;;4.13;43.32
40117;BME280;25829;50.228;18.936;2023-04-06T12:08:40;98786.47;;;4.03;42.29
40117;BME280;25829;50.228;18.936;2023-04-06T12:11:41;98786.09;;;3.89;42.50
40117;BME280;25829;50.228;18.936;2023-04-06T12:14:42;98782.78;;;3.79;42.42
40117;BME280;25829;50.228;18.936;2023-04-06T12:17:46;98780.59;;;3.66;42.40
40117;BME280;25829;50.228;18.936;2023-04-06T12:20:47;98784.50;;;3.62;43.27
40117;BME280;25829;50.228;18.936;2023-04-06T12:23:50;98786.75;;;3.57;43.21
40117;BME280;25829;50.228;18.936;2023-04-06T12:26:52;98778.63;;;3.60;43.37
40117;BME280;25829;50.228;18.936;2023-04-06T12:29:54;98774.19;;;3.53;43.03
40117;BME280;25829;50.228;18.936;2023-04-06T12:32:56;98763.88;;;3.51;43.67
40117;BME280;25829;50.228;18.936;2023-04-06T12:36:03;98758.53;;;3.53;42.80
40117;BME280;25829;50.228;18.936;2023-04-06T12:39:18;98763.56;;;3.46;43.54
40117;BME280;25829;50.228;18.936;2023-04-06T12:42:20;98761.53;;;3.40;43.45
40117;BME280;25829;50.228;18.936;2023-04-06T12:45:22;98760.72;;;3.39;44.14
40117;BME280;25829;50.228;18.936;2023-04-06T12:48:25;98755.22;;;3.42;44.99
40117;BME280;25829;50.228;18.936;2023-04-06T12:51:28;98762.25;;;3.50;44.31
40117;BME280;25829;50.228;18.936;2023-04-06T12:54:29;98759.97;;;3.47;44.12
40117;BME280;25829;50.228;18.936;2023-04-06T12:57:36;98748.53;;;3.48;44.64
40117;BME280;25829;50.228;18.936;2023-04-06T13:00:37;98754.75;;;3.47;44.73
40117;BME280;25829;50.228;18.936;2023-04-06T13:03:40;98754.00;;;3.37;44.91
40117;BME280;25829;50.228;18.936;2023-04-06T13:06:41;98750.47;;;3.20;45.38
40117;BME280;25829;50.228;18.936;2023-04-06T13:09:45;98749.09;;;3.08;45.78
40117;BME280;25829;50.228;18.936;2023-04-06T13:12:56;98748.63;;;3.12;46.28
40117;BME280;25829;50.228;18.936;2023-04-06T13:16:04;98749.78;;;3.18;46.28
40117;BME280;25829;50.228;18.936;2023-04-06T13:19:05;98754.19;;;3.17;46.41
40117;BME280;25829;50.228;18.936;2023-04-06T13:22:06;98754.31;;;3.08;47.40
40117;BME280;25829;50.228;18.936;2023-04-06T13:25:07;98752.88;;;3.13;48.27
40117;BME280;25829;50.228;18.936;2023-04-06T13:28:11;98749.75;;;3.10;48.66
40117;BME280;25829;50.228;18.936;2023-04-06T13:31:12;98749.06;;;2.82;50.31
40117;BME280;25829;50.228;18.936;2023-04-06T13:34:12;98754.00;;;2.67;51.43
40117;BME280;25829;50.228;18.936;2023-04-06T13:37:14;98747.41;;;2.45;52.37
40117;BME280;25829;50.228;18.936;2023-04-06T13:40:23;98750.03;;;2.45;52.91
40117;BME280;25829;50.228;18.936;2023-04-06T13:43:32;98747.06;;;2.40;54.18
40117;BME280;25829;50.228;18.936;2023-04-06T13:46:45;98734.84;;;2.40;54.47
40117;BME280;25829;50.228;18.936;2023-04-06T13:49:47;98738.13;;;2.42;55.04
40117;BME280;25829;50.228;18.936;2023-04-06T13:52:47;98739.25;;;2.40;55.30
40117;BME280;25829;50.228;18.936;2023-04-06T13:55:56;98731.03;;;2.35;55.44
40117;BME280;25829;50.228;18.936;2023-04-06T13:58:56;98739.69;;;2.35;55.96
40117;BME280;25829;50.228;18.936;2023-04-06T14:02:05;98739.94;;;2.42;56.00
40117;BME280;25829;50.228;18.936;2023-04-06T14:05:07;98728.97;;;2.38;56.25
40117;BME280;25829;50.228;18.936;2023-04-06T14:08:08;98724.31;;;2.42;56.94
40117;BME280;25829;50.228;18.936;2023-04-06T14:11:12;98725.53;;;2.20;56.46
40117;BME280;25829;50.228;18.936;2023-04-06T14:14:13;98719.97;;;2.15;57.39
40117;BME280;25829;50.228;18.936;2023-04-06T14:17:15;98721.31;;;2.19;56.47
40117;BME280;25829;50.228;18.936;2023-04-06T14:20:15;98719.34;;;2.21;56.67
40117;BME280;25829;50.228;18.936;2023-04-06T14:23:16;98717.91;;;2.36;56.73
40117;BME280;25829;50.228;18.936;2023-04-06T14:26:17;98718.88;;;2.53;56.31
40117;BME280;25829;50.228;18.936;2023-04-06T14:29:19;98719.59;;;2.63;55.98
40117;BME280;25829;50.228;18.936;2023-04-06T14:32:26;98717.66;;;2.65;55.81
40117;BME280;25829;50.228;18.936;2023-04-06T14:35:38;98713.41;;;2.64;55.83
40117;BME280;25829;50.228;18.936;2023-04-06T14:39:01;98714.41;;;2.63;56.58
40117;BME280;25829;50.228;18.936;2023-04-06T14:42:08;98722.50;;;2.60;56.49
40117;BME280;25829;50.228;18.936;2023-04-06T14:45:18;98719.22;;;2.58;56.75
40117;BME280;25829;50.228;18.936;2023-04-06T14:48:21;98718.94;;;2.61;56.55
40117;BME280;25829;50.228;18.936;2023-04-06T14:51:34;98716.47;;;2.60;55.95
40117;BME280;25829;50.228;18.936;2023-04-06T14:55:08;98717.31;;;2.60;56.55
40117;BME280;25829;50.228;18.936;2023-04-06T14:58:39;98721.09;;;2.48;55.92
40117;BME280;25829;50.228;18.936;2023-04-06T15:01:40;98729.53;;;2.42;56.16
40117;BME280;25829;50.228;18.936;2023-04-06T15:04:44;98719.00;;;2.34;56.11
40117;BME280;25829;50.228;18.936;2023-04-06T15:07:45;98719.47;;;2.29;56.55
40117;BME280;25829;50.228;18.936;2023-04-06T15:11:22;98708.66;;;2.24;56.87
40117;BME280;25829;50.228;18.936;2023-04-06T15:14:28;98710.03;;;2.28;57.17
40117;BME280;25829;50.228;18.936;2023-04-06T15:18:12;98702.41;;;2.35;57.59
40117;BME280;25829;50.228;18.936;2023-04-06T15:21:38;98703.91;;;2.37;57.34
40117;BME280;25829;50.228;18.936;2023-04-06T15:24:39;98712.47;;;2.30;57.25
40117;BME280;25829;50.228;18.936;2023-04-06T15:35:11;98710.19;;;1.99;57.89
40117;BME280;25829;50.228;18.936;2023-04-06T15:38:30;98708.47;;;1.90;58.12
40117;BME280;25829;50.228;18.936;2023-04-06T15:42:08;98714.88;;;1.95;58.10
40117;BME280;25829;50.228;18.936;2023-04-06T15:45:10;98714.19;;;1.93;57.88
40117;BME280;25829;50.228;18.936;2023-04-06T15:48:33;98715.28;;;2.00;57.45
40117;BME280;25829;50.228;18.936;2023-04-06T15:51:50;98718.25;;;2.06;57.68
40117;BME280;25829;50.228;18.936;2023-04-06T15:54:52;98712.34;;;2.03;57.43
40117;BME280;25829;50.228;18.936;2023-04-06T15:57:59;98711.94;;;2.08;57.79
40117;BME280;25829;50.228;18.936;2023-04-06T16:01:00;98715.88;;;2.12;57.32
40117;BME280;25829;50.228;18.936;2023-04-06T16:04:00;98710.50;;;2.14;57.42
40117;BME280;25829;50.228;18.936;2023-04-06T16:07:21;98710.75;;;2.20;57.34
40117;BME280;25829;50.228;18.936;2023-04-06T16:10:22;98714.59;;;2.16;57.24
40117;BME280;25829;50.228;18.936;2023-04-06T16:13:23;98712.00;;;2.16;56.74
40117;BME280;25829;50.228;18.936;2023-04-06T16:16:30;98713.72;;;2.25;57.50
40117;BME280;25829;50.228;18.936;2023-04-06T16:19:34;98716.56;;;2.32;56.99
40117;BME280;25829;50.228;18.936;2023-04-06T16:22:35;98711.06;;;2.35;56.98
40117;BME280;25829;50.228;18.936;2023-04-06T16:25:42;98711.72;;;2.37;56.81